sensor_id;sensor_type;location;lat;lon;timestamp;P1;durP1;ratioP1;P2;durP2;ratioP2
21806;SDS011;11065;50.786;7.840;2024-03-02T00:01:49;2.87;;;1.87;;
21806;SDS011;11065;50.786;7.840;2024-03-02T00:04:17;3.47;;;2.03;;
21806;SDS011;11065;50.786;7.840;2024-03-02T00:06:47;2.73;;;1.90;;
21806;SDS011;11065;50.786;7.840;2024-03-02T00:09:15;3.23;;;1.90;;
21806;SDS011;11065;50.786;7.840;2024-03-02T00:11:43;2.77;;;1.83;;
21806;SDS011;11065;50.786;7.840;2024-03-02T00:14:11;3.33;;;1.93;;
21806;SDS011;11065;50.786;7.840;2024-03-02T00:16:39;3.23;;;2.00;;
21806;SDS011;11065;50.786;7.840;2024-03-02T00:19:07;2.73;;;1.73;;
21806;SDS011;11065;50.786;7.840;2024-03-02T00:21:37;3.73;;;2.17;;
21806;SDS011;11065;50.786;7.840;2024-03-02T00:24:12;3.30;;;2.03;;
21806;SDS011;11065;50.786;7.840;2024-03-02T00:26:48;3.27;;;1.97;;
21806;SDS011;11065;50.786;7.840;2024-03-02T00:29:15;3.10;;;2.07;;
21806;SDS011;11065;50.786;7.840;2024-03-02T00:31:45;3.80;;;2.23;;
21806;SDS011;11065;50.786;7.840;2024-03-02T00:34:14;3.33;;;2.03;;
21806;SDS011;11065;50.786;7.840;2024-03-02T00:36:44;2.93;;;1.80;;
21806;SDS011;11065;50.786;7.840;2024-03-02T00:39:15;2.47;;;1.70;;
21806;SDS011;11065;50.786;7.840;2024-03-02T00:41:44;3.10;;;1.80;;
21806;SDS011;11065;50.786;7.840;2024-03-02T00:44:12;3.33;;;1.93;;
21806;SDS011;11065;50.786;7.840;2024-03-02T00:46:42;3.13;;;1.80;;
21806;SDS011;11065;50.786;7.840;2024-03-02T00:49:11;3.10;;;1.90;;
21806;SDS011;11065;50.786;7.840;2024-03-02T00:51:46;4.63;;;2.00;;
21806;SDS011;11065;50.786;7.840;2024-03-02T00:54:18;3.30;;;1.87;;
21806;SDS011;11065;50.786;7.840;2024-03-02T00:56:47;4.00;;;2.13;;
21806;SDS011;11065;50.786;7.840;2024-03-02T00:59:16;3.03;;;1.80;;
21806;SDS011;11065;50.786;7.840;2024-03-02T01:01:44;4.13;;;2.00;;
21806;SDS011;11065;50.786;7.840;2024-03-02T01:04:12;3.53;;;1.93;;
21806;SDS011;11065;50.786;7.840;2024-03-02T01:06:41;3.00;;;2.00;;
21806;SDS011;11065;50.786;7.840;2024-03-02T01:09:10;7.20;;;2.30;;
21806;SDS011;11065;50.786;7.840;2024-03-02T01:11:40;3.47;;;2.40;;
21806;SDS011;11065;50.786;7.840;2024-03-02T01:14:08;4.23;;;2.23;;
21806;SDS011;11065;50.786;7.840;2024-03-02T01:16:36;3.60;;;2.03;;
21806;SDS011;11065;50.786;7.840;2024-03-02T01:19:04;5.13;;;2.13;;
21806;SDS011;11065;50.786;7.840;2024-03-02T01:21:32;4.03;;;2.20;;
21806;SDS011;11065;50.786;7.840;2024-03-02T01:24:00;4.83;;;2.30;;
21806;SDS011;11065;50.786;7.840;2024-03-02T01:26:28;3.93;;;2.40;;
21806;SDS011;11065;50.786;7.840;2024-03-02T01:28:58;4.37;;;2.70;;
21806;SDS011;11065;50.786;7.840;2024-03-02T01:31:26;4.10;;;2.67;;
21806;SDS011;11065;50.786;7.840;2024-03-02T01:33:54;3.80;;;2.60;;
21806;SDS011;11065;50.786;7.840;2024-03-02T01:36:22;4.53;;;2.70;;
21806;SDS011;11065;50.786;7.840;2024-03-02T01:38:50;4.47;;;2.80;;
21806;SDS011;11065;50.786;7.840;2024-03-02T01:41:18;4.23;;;2.57;;
21806;SDS011;11065;50.786;7.840;2024-03-02T01:43:45;4.33;;;2.77;;
21806;SDS011;11065;50.786;7.840;2024-03-02T01:46:15;4.03;;;2.73;;
21806;SDS011;11065;50.786;7.840;2024-03-02T01:48:43;5.33;;;2.70;;
21806;SDS011;11065;50.786;7.840;2024-03-02T01:51:11;4.27;;;2.90;;
21806;SDS011;11065;50.786;7.840;2024-03-02T01:53:39;5.13;;;3.40;;
21806;SDS011;11065;50.786;7.840;2024-03-02T01:56:07;5.33;;;3.23;;
21806;SDS011;11065;50.786;7.840;2024-03-02T01:58:35;5.10;;;3.37;;
21806;SDS011;11065;50.786;7.840;2024-03-02T02:01:03;5.10;;;3.23;;
21806;SDS011;11065;50.786;7.840;2024-03-02T02:03:32;6.07;;;3.27;;
21806;SDS011;11065;50.786;7.840;2024-03-02T02:06:00;5.00;;;3.27;;
21806;SDS011;11065;50.786;7.840;2024-03-02T02:08:28;4.50;;;2.60;;
21806;SDS011;11065;50.786;7.840;2024-03-02T02:10:56;4.50;;;3.00;;
21806;SDS011;11065;50.786;7.840;2024-03-02T02:13:25;5.07;;;3.40;;
21806;SDS011;11065;50.786;7.840;2024-03-02T02:15:53;5.50;;;3.67;;
21806;SDS011;11065;50.786;7.840;2024-03-02T02:18:21;5.80;;;3.57;;
21806;SDS011;11065;50.786;7.840;2024-03-02T02:20:50;5.83;;;4.10;;
21806;SDS011;11065;50.786;7.840;2024-03-02T02:23:20;5.17;;;3.60;;
21806;SDS011;11065;50.786;7.840;2024-03-02T02:25:47;5.33;;;3.60;;
21806;SDS011;11065;50.786;7.840;2024-03-02T02:28:15;6.40;;;3.70;;
21806;SDS011;11065;50.786;7.840;2024-03-02T02:30:43;6.27;;;3.83;;
21806;SDS011;11065;50.786;7.840;2024-03-02T02:33:11;5.80;;;3.90;;
21806;SDS011;11065;50.786;7.840;2024-03-02T02:35:40;5.57;;;3.83;;
21806;SDS011;11065;50.786;7.840;2024-03-02T02:38:07;5.17;;;3.57;;
21806;SDS011;11065;50.786;7.840;2024-03-02T02:40:37;6.33;;;3.83;;
21806;SDS011;11065;50.786;7.840;2024-03-02T02:43:05;5.07;;;3.47;;
21806;SDS011;11065;50.786;7.840;2024-03-02T02:45:33;5.73;;;3.77;;
21806;SDS011;11065;50.786;7.840;2024-03-02T02:48:01;5.07;;;3.27;;
21806;SDS011;11065;50.786;7.840;2024-03-02T02:50:30;6.17;;;3.70;;
21806;SDS011;11065;50.786;7.840;2024-03-02T02:52:58;6.37;;;3.80;;
21806;SDS011;11065;50.786;7.840;2024-03-02T02:55:26;6.00;;;4.30;;
21806;SDS011;11065;50.786;7.840;2024-03-02T02:57:55;5.50;;;3.50;;
21806;SDS011;11065;50.786;7.840;2024-03-02T03:00:23;5.60;;;3.70;;
21806;SDS011;11065;50.786;7.840;2024-03-02T03:02:51;4.63;;;3.47;;
21806;SDS011;11065;50.786;7.840;2024-03-02T03:05:19;5.80;;;3.77;;
21806;SDS011;11065;50.786;7.840;2024-03-02T03:07:47;4.97;;;3.73;;
21806;SDS011;11065;50.786;7.840;2024-03-02T03:10:16;6.13;;;3.93;;
21806;SDS011;11065;50.786;7.840;2024-03-02T03:12:44;5.43;;;3.60;;
21806;SDS011;11065;50.786;7.840;2024-03-02T03:15:14;6.47;;;4.53;;
21806;SDS011;11065;50.786;7.840;2024-03-02T03:17:43;5.77;;;4.07;;
21806;SDS011;11065;50.786;7.840;2024-03-02T03:20:13;5.20;;;4.00;;
21806;SDS011;11065;50.786;7.840;2024-03-02T03:22:42;5.47;;;3.53;;
21806;SDS011;11065;50.786;7.840;2024-03-02T03:25:10;5.73;;;3.77;;
21806;SDS011;11065;50.786;7.840;2024-03-02T03:27:38;6.73;;;4.07;;
21806;SDS011;11065;50.786;7.840;2024-03-02T03:30:08;4.90;;;3.47;;
21806;SDS011;11065;50.786;7.840;2024-03-02T03:32:37;5.53;;;3.97;;
21806;SDS011;11065;50.786;7.840;2024-03-02T03:35:06;7.47;;;4.17;;
21806;SDS011;11065;50.786;7.840;2024-03-02T03:37:35;6.00;;;3.77;;
21806;SDS011;11065;50.786;7.840;2024-03-02T03:40:03;6.93;;;3.73;;
21806;SDS011;11065;50.786;7.840;2024-03-02T03:42:36;6.23;;;3.73;;
21806;SDS011;11065;50.786;7.840;2024-03-02T03:45:04;6.10;;;3.83;;
21806;SDS011;11065;50.786;7.840;2024-03-02T03:47:33;4.83;;;3.80;;
21806;SDS011;11065;50.786;7.840;2024-03-02T03:50:02;6.33;;;3.90;;
21806;SDS011;11065;50.786;7.840;2024-03-02T03:52:33;6.83;;;3.73;;
21806;SDS011;11065;50.786;7.840;2024-03-02T03:55:01;6.00;;;3.90;;
21806;SDS011;11065;50.786;7.840;2024-03-02T03:57:29;5.83;;;3.57;;
21806;SDS011;11065;50.786;7.840;2024-03-02T03:59:57;5.37;;;3.27;;
21806;SDS011;11065;50.786;7.840;2024-03-02T04:02:26;5.57;;;3.90;;
21806;SDS011;11065;50.786;7.840;2024-03-02T04:04:54;5.47;;;3.70;;
21806;SDS011;11065;50.786;7.840;2024-03-02T04:07:23;6.53;;;3.77;;
21806;SDS011;11065;50.786;7.840;2024-03-02T04:09:51;6.03;;;4.27;;
21806;SDS011;11065;50.786;7.840;2024-03-02T04:12:19;5.03;;;3.40;;
21806;SDS011;11065;50.786;7.840;2024-03-02T04:14:47;5.77;;;3.50;;
21806;SDS011;11065;50.786;7.840;2024-03-02T04:17:15;4.90;;;3.20;;
21806;SDS011;11065;50.786;7.840;2024-03-02T04:19:43;6.10;;;3.57;;
21806;SDS011;11065;50.786;7.840;2024-03-02T04:22:11;5.60;;;3.47;;
21806;SDS011;11065;50.786;7.840;2024-03-02T04:24:51;5.50;;;3.50;;
21806;SDS011;11065;50.786;7.840;2024-03-02T04:27:19;6.57;;;4.17;;
21806;SDS011;11065;50.786;7.840;2024-03-02T04:29:47;5.23;;;3.77;;
21806;SDS011;11065;50.786;7.840;2024-03-02T04:32:15;5.17;;;3.53;;
21806;SDS011;11065;50.786;7.840;2024-03-02T04:34:45;5.73;;;3.57;;
21806;SDS011;11065;50.786;7.840;2024-03-02T04:37:13;5.03;;;3.23;;
21806;SDS011;11065;50.786;7.840;2024-03-02T04:39:41;5.67;;;3.50;;
21806;SDS011;11065;50.786;7.840;2024-03-02T04:42:10;5.43;;;3.60;;
21806;SDS011;11065;50.786;7.840;2024-03-02T04:44:38;5.20;;;3.53;;
21806;SDS011;11065;50.786;7.840;2024-03-02T04:47:06;4.90;;;3.33;;
21806;SDS011;11065;50.786;7.840;2024-03-02T04:49:34;5.67;;;3.73;;
21806;SDS011;11065;50.786;7.840;2024-03-02T04:52:02;4.97;;;3.33;;
21806;SDS011;11065;50.786;7.840;2024-03-02T04:54:30;6.20;;;3.57;;
21806;SDS011;11065;50.786;7.840;2024-03-02T04:56:59;6.27;;;3.37;;
21806;SDS011;11065;50.786;7.840;2024-03-02T04:59:28;6.40;;;3.40;;
21806;SDS011;11065;50.786;7.840;2024-03-02T05:01:57;5.43;;;3.40;;
21806;SDS011;11065;50.786;7.840;2024-03-02T05:04:25;5.60;;;3.83;;
21806;SDS011;11065;50.786;7.840;2024-03-02T05:06:53;5.73;;;3.63;;
21806;SDS011;11065;50.786;7.840;2024-03-02T05:09:23;4.73;;;3.03;;
21806;SDS011;11065;50.786;7.840;2024-03-02T05:11:51;5.20;;;3.50;;
21806;SDS011;11065;50.786;7.840;2024-03-02T05:14:57;4.70;;;3.07;;
21806;SDS011;11065;50.786;7.840;2024-03-02T05:17:24;4.80;;;3.23;;
21806;SDS011;11065;50.786;7.840;2024-03-02T05:19:52;5.47;;;3.67;;
21806;SDS011;11065;50.786;7.840;2024-03-02T05:22:20;6.23;;;3.33;;
21806;SDS011;11065;50.786;7.840;2024-03-02T05:24:48;4.53;;;3.33;;
21806;SDS011;11065;50.786;7.840;2024-03-02T05:27:16;5.77;;;3.23;;
21806;SDS011;11065;50.786;7.840;2024-03-02T05:29:44;5.30;;;3.20;;
21806;SDS011;11065;50.786;7.840;2024-03-02T05:32:14;5.80;;;3.70;;
21806;SDS011;11065;50.786;7.840;2024-03-02T05:34:42;5.27;;;3.30;;
21806;SDS011;11065;50.786;7.840;2024-03-02T05:37:10;4.87;;;3.40;;
21806;SDS011;11065;50.786;7.840;2024-03-02T05:39:38;5.30;;;3.17;;
21806;SDS011;11065;50.786;7.840;2024-03-02T05:42:06;5.23;;;3.70;;
21806;SDS011;11065;50.786;7.840;2024-03-02T05:44:35;5.03;;;3.30;;
21806;SDS011;11065;50.786;7.840;2024-03-02T05:47:03;4.97;;;2.83;;
21806;SDS011;11065;50.786;7.840;2024-03-02T05:49:32;8.27;;;3.50;;
21806;SDS011;11065;50.786;7.840;2024-03-02T05:52:00;4.90;;;3.53;;
21806;SDS011;11065;50.786;7.840;2024-03-02T05:54:29;5.00;;;3.60;;
21806;SDS011;11065;50.786;7.840;2024-03-02T05:56:57;5.20;;;3.70;;
21806;SDS011;11065;50.786;7.840;2024-03-02T05:59:42;4.70;;;3.10;;
21806;SDS011;11065;50.786;7.840;2024-03-02T06:02:10;5.93;;;3.37;;
21806;SDS011;11065;50.786;7.840;2024-03-02T06:04:40;4.13;;;2.70;;
21806;SDS011;11065;50.786;7.840;2024-03-02T06:07:08;4.97;;;3.17;;
21806;SDS011;11065;50.786;7.840;2024-03-02T06:09:36;4.17;;;2.90;;
21806;SDS011;11065;50.786;7.840;2024-03-02T06:12:04;5.57;;;2.80;;
21806;SDS011;11065;50.786;7.840;2024-03-02T06:14:32;5.30;;;3.17;;
21806;SDS011;11065;50.786;7.840;2024-03-02T06:17:00;4.17;;;2.60;;
21806;SDS011;11065;50.786;7.840;2024-03-02T06:19:28;5.13;;;3.30;;
21806;SDS011;11065;50.786;7.840;2024-03-02T06:21:57;4.73;;;3.27;;
21806;SDS011;11065;50.786;7.840;2024-03-02T06:24:25;5.77;;;3.60;;
21806;SDS011;11065;50.786;7.840;2024-03-02T06:26:53;4.97;;;3.43;;
21806;SDS011;11065;50.786;7.840;2024-03-02T06:29:21;5.50;;;3.37;;
21806;SDS011;11065;50.786;7.840;2024-03-02T06:31:49;4.70;;;3.13;;
21806;SDS011;11065;50.786;7.840;2024-03-02T06:34:20;6.37;;;3.57;;
21806;SDS011;11065;50.786;7.840;2024-03-02T06:36:48;5.33;;;3.50;;
21806;SDS011;11065;50.786;7.840;2024-03-02T06:39:18;5.93;;;3.50;;
21806;SDS011;11065;50.786;7.840;2024-03-02T06:41:45;5.30;;;3.37;;
21806;SDS011;11065;50.786;7.840;2024-03-02T06:44:14;6.07;;;3.13;;
21806;SDS011;11065;50.786;7.840;2024-03-02T06:46:42;6.07;;;3.93;;
21806;SDS011;11065;50.786;7.840;2024-03-02T06:49:10;6.57;;;3.57;;
21806;SDS011;11065;50.786;7.840;2024-03-02T06:51:38;5.10;;;3.20;;
21806;SDS011;11065;50.786;7.840;2024-03-02T06:54:06;7.00;;;3.77;;
21806;SDS011;11065;50.786;7.840;2024-03-02T06:56:35;4.50;;;3.23;;
21806;SDS011;11065;50.786;7.840;2024-03-02T06:59:04;5.57;;;3.53;;
21806;SDS011;11065;50.786;7.840;2024-03-02T07:01:33;4.17;;;3.03;;
21806;SDS011;11065;50.786;7.840;2024-03-02T07:04:01;6.00;;;3.43;;
21806;SDS011;11065;50.786;7.840;2024-03-02T07:06:29;5.87;;;3.10;;
21806;SDS011;11065;50.786;7.840;2024-03-02T07:08:57;5.00;;;3.10;;
21806;SDS011;11065;50.786;7.840;2024-03-02T07:11:25;5.33;;;3.10;;
21806;SDS011;11065;50.786;7.840;2024-03-02T07:13:54;4.97;;;2.90;;
21806;SDS011;11065;50.786;7.840;2024-03-02T07:16:22;3.93;;;2.43;;
21806;SDS011;11065;50.786;7.840;2024-03-02T07:18:54;5.50;;;3.07;;
21806;SDS011;11065;50.786;7.840;2024-03-02T07:21:23;4.50;;;3.00;;
21806;SDS011;11065;50.786;7.840;2024-03-02T07:23:51;4.87;;;2.63;;
21806;SDS011;11065;50.786;7.840;2024-03-02T07:26:19;4.43;;;3.07;;
21806;SDS011;11065;50.786;7.840;2024-03-02T07:28:50;4.33;;;2.63;;
21806;SDS011;11065;50.786;7.840;2024-03-02T07:31:19;3.67;;;2.67;;
21806;SDS011;11065;50.786;7.840;2024-03-02T07:33:47;4.27;;;2.77;;
21806;SDS011;11065;50.786;7.840;2024-03-02T07:36:15;3.93;;;2.53;;
21806;SDS011;11065;50.786;7.840;2024-03-02T07:38:44;6.17;;;3.03;;
21806;SDS011;11065;50.786;7.840;2024-03-02T07:41:16;5.20;;;3.20;;
21806;SDS011;11065;50.786;7.840;2024-03-02T07:43:44;4.77;;;2.90;;
21806;SDS011;11065;50.786;7.840;2024-03-02T07:46:12;4.87;;;2.80;;
21806;SDS011;11065;50.786;7.840;2024-03-02T07:48:42;3.87;;;2.20;;
21806;SDS011;11065;50.786;7.840;2024-03-02T07:51:10;4.30;;;2.20;;
21806;SDS011;11065;50.786;7.840;2024-03-02T07:53:38;4.57;;;2.43;;
21806;SDS011;11065;50.786;7.840;2024-03-02T07:56:06;3.53;;;1.97;;
21806;SDS011;11065;50.786;7.840;2024-03-02T07:58:34;3.83;;;1.93;;
21806;SDS011;11065;50.786;7.840;2024-03-02T08:01:03;3.33;;;1.73;;
21806;SDS011;11065;50.786;7.840;2024-03-02T08:03:31;3.27;;;1.93;;
21806;SDS011;11065;50.786;7.840;2024-03-02T08:06:02;3.87;;;2.10;;
21806;SDS011;11065;50.786;7.840;2024-03-02T08:08:30;4.20;;;2.30;;
21806;SDS011;11065;50.786;7.840;2024-03-02T08:10:58;3.63;;;2.20;;
21806;SDS011;11065;50.786;7.840;2024-03-02T08:13:27;3.93;;;2.00;;
21806;SDS011;11065;50.786;7.840;2024-03-02T08:15:55;3.90;;;2.03;;
21806;SDS011;11065;50.786;7.840;2024-03-02T08:18:24;3.63;;;2.17;;
21806;SDS011;11065;50.786;7.840;2024-03-02T08:20:53;4.17;;;2.27;;
21806;SDS011;11065;50.786;7.840;2024-03-02T08:23:22;5.77;;;2.10;;
21806;SDS011;11065;50.786;7.840;2024-03-02T08:25:50;2.83;;;1.83;;
21806;SDS011;11065;50.786;7.840;2024-03-02T08:28:18;3.37;;;2.10;;
21806;SDS011;11065;50.786;7.840;2024-03-02T08:30:46;3.43;;;2.10;;
21806;SDS011;11065;50.786;7.840;2024-03-02T08:33:14;3.27;;;1.80;;
21806;SDS011;11065;50.786;7.840;2024-03-02T08:35:42;3.37;;;2.00;;
21806;SDS011;11065;50.786;7.840;2024-03-02T08:38:10;3.57;;;2.07;;
21806;SDS011;11065;50.786;7.840;2024-03-02T08:40:40;3.27;;;1.77;;
21806;SDS011;11065;50.786;7.840;2024-03-02T08:43:09;3.37;;;1.90;;
21806;SDS011;11065;50.786;7.840;2024-03-02T08:45:37;4.83;;;2.50;;
21806;SDS011;11065;50.786;7.840;2024-03-02T08:48:06;6.50;;;2.00;;
21806;SDS011;11065;50.786;7.840;2024-03-02T08:50:35;2.90;;;1.60;;
21806;SDS011;11065;50.786;7.840;2024-03-02T08:53:04;2.97;;;2.07;;
21806;SDS011;11065;50.786;7.840;2024-03-02T08:55:32;3.73;;;1.93;;
21806;SDS011;11065;50.786;7.840;2024-03-02T08:58:01;2.83;;;1.53;;
21806;SDS011;11065;50.786;7.840;2024-03-02T09:00:29;2.87;;;1.70;;
21806;SDS011;11065;50.786;7.840;2024-03-02T09:02:58;3.10;;;1.83;;
21806;SDS011;11065;50.786;7.840;2024-03-02T09:05:26;3.00;;;1.80;;
21806;SDS011;11065;50.786;7.840;2024-03-02T09:07:54;2.85;;;1.50;;
21806;SDS011;11065;50.786;7.840;2024-03-02T09:10:22;3.92;;;1.98;;
21806;SDS011;11065;50.786;7.840;2024-03-02T09:12:53;2.95;;;1.75;;
21806;SDS011;11065;50.786;7.840;2024-03-02T09:15:23;3.20;;;1.65;;
21806;SDS011;11065;50.786;7.840;2024-03-02T09:17:51;2.65;;;2.00;;
21806;SDS011;11065;50.786;7.840;2024-03-02T09:20:22;2.65;;;1.80;;
21806;SDS011;11065;50.786;7.840;2024-03-02T09:22:50;2.90;;;1.90;;
21806;SDS011;11065;50.786;7.840;2024-03-02T09:25:18;2.60;;;1.85;;
21806;SDS011;11065;50.786;7.840;2024-03-02T09:27:46;3.80;;;2.15;;
21806;SDS011;11065;50.786;7.840;2024-03-02T09:30:14;3.17;;;1.92;;
21806;SDS011;11065;50.786;7.840;2024-03-02T09:32:44;2.85;;;1.80;;
21806;SDS011;11065;50.786;7.840;2024-03-02T09:35:15;3.80;;;2.20;;
21806;SDS011;11065;50.786;7.840;2024-03-02T09:37:44;2.40;;;1.65;;
21806;SDS011;11065;50.786;7.840;2024-03-02T09:40:13;2.53;;;1.63;;
21806;SDS011;11065;50.786;7.840;2024-03-02T09:42:42;3.50;;;1.80;;
21806;SDS011;11065;50.786;7.840;2024-03-02T09:45:17;3.45;;;1.80;;
21806;SDS011;11065;50.786;7.840;2024-03-02T09:47:52;2.95;;;1.85;;
21806;SDS011;11065;50.786;7.840;2024-03-02T09:50:20;3.33;;;1.77;;
21806;SDS011;11065;50.786;7.840;2024-03-02T09:52:48;3.00;;;2.10;;
21806;SDS011;11065;50.786;7.840;2024-03-02T09:55:16;2.33;;;1.50;;
21806;SDS011;11065;50.786;7.840;2024-03-02T09:57:45;2.78;;;1.88;;
21806;SDS011;11065;50.786;7.840;2024-03-02T10:00:15;2.63;;;1.80;;
21806;SDS011;11065;50.786;7.840;2024-03-02T10:02:43;2.20;;;1.42;;
21806;SDS011;11065;50.786;7.840;2024-03-02T10:05:24;1.77;;;1.40;;
21806;SDS011;11065;50.786;7.840;2024-03-02T10:08:00;3.13;;;1.70;;
21806;SDS011;11065;50.786;7.840;2024-03-02T10:10:36;1.95;;;1.63;;
21806;SDS011;11065;50.786;7.840;2024-03-02T10:13:06;3.85;;;1.98;;
21806;SDS011;11065;50.786;7.840;2024-03-02T10:15:37;2.28;;;1.58;;
21806;SDS011;11065;50.786;7.840;2024-03-02T10:18:08;2.22;;;1.50;;
21806;SDS011;11065;50.786;7.840;2024-03-02T10:20:39;3.03;;;1.30;;
21806;SDS011;11065;50.786;7.840;2024-03-02T10:23:09;2.67;;;1.50;;
21806;SDS011;11065;50.786;7.840;2024-03-02T10:25:38;1.70;;;1.20;;
21806;SDS011;11065;50.786;7.840;2024-03-02T10:28:20;2.58;;;1.40;;
21806;SDS011;11065;50.786;7.840;2024-03-02T10:30:48;2.30;;;1.40;;
21806;SDS011;11065;50.786;7.840;2024-03-02T10:33:17;2.60;;;1.73;;
21806;SDS011;11065;50.786;7.840;2024-03-02T10:35:47;1.98;;;1.25;;
21806;SDS011;11065;50.786;7.840;2024-03-02T10:38:17;2.78;;;1.33;;
21806;SDS011;11065;50.786;7.840;2024-03-02T10:40:46;2.67;;;1.40;;
21806;SDS011;11065;50.786;7.840;2024-03-02T10:43:15;2.20;;;1.40;;
21806;SDS011;11065;50.786;7.840;2024-03-02T10:45:44;2.50;;;1.33;;
21806;SDS011;11065;50.786;7.840;2024-03-02T10:48:16;2.38;;;1.10;;
21806;SDS011;11065;50.786;7.840;2024-03-02T10:50:44;1.80;;;1.27;;
21806;SDS011;11065;50.786;7.840;2024-03-02T10:53:15;2.40;;;1.55;;
21806;SDS011;11065;50.786;7.840;2024-03-02T10:55:43;2.00;;;1.20;;
21806;SDS011;11065;50.786;7.840;2024-03-02T10:58:11;1.48;;;1.08;;
21806;SDS011;11065;50.786;7.840;2024-03-02T11:00:39;1.90;;;1.15;;
21806;SDS011;11065;50.786;7.840;2024-03-02T11:03:12;1.73;;;1.15;;
21806;SDS011;11065;50.786;7.840;2024-03-02T11:05:43;2.40;;;1.20;;
21806;SDS011;11065;50.786;7.840;2024-03-02T11:08:13;1.50;;;1.20;;
21806;SDS011;11065;50.786;7.840;2024-03-02T11:10:48;2.17;;;1.50;;
21806;SDS011;11065;50.786;7.840;2024-03-02T11:13:20;2.42;;;1.38;;
21806;SDS011;11065;50.786;7.840;2024-03-02T11:15:51;2.78;;;1.85;;
21806;SDS011;11065;50.786;7.840;2024-03-02T11:18:23;2.47;;;1.50;;
21806;SDS011;11065;50.786;7.840;2024-03-02T11:20:51;2.58;;;1.42;;
21806;SDS011;11065;50.786;7.840;2024-03-02T11:23:22;2.45;;;1.30;;
21806;SDS011;11065;50.786;7.840;2024-03-02T11:28:45;1.80;;;1.10;;
21806;SDS011;11065;50.786;7.840;2024-03-02T11:31:14;1.83;;;1.30;;
21806;SDS011;11065;50.786;7.840;2024-03-02T11:33:42;2.28;;;1.13;;
21806;SDS011;11065;50.786;7.840;2024-03-02T11:36:10;1.95;;;1.30;;
21806;SDS011;11065;50.786;7.840;2024-03-02T11:38:40;2.53;;;1.50;;
21806;SDS011;11065;50.786;7.840;2024-03-02T11:41:11;1.52;;;1.10;;
21806;SDS011;11065;50.786;7.840;2024-03-02T11:43:40;2.08;;;1.55;;
21806;SDS011;11065;50.786;7.840;2024-03-02T11:46:10;2.20;;;1.45;;
21806;SDS011;11065;50.786;7.840;2024-03-02T11:48:39;1.80;;;1.30;;
21806;SDS011;11065;50.786;7.840;2024-03-02T11:51:07;2.40;;;1.50;;
21806;SDS011;11065;50.786;7.840;2024-03-02T11:53:35;1.98;;;1.38;;
21806;SDS011;11065;50.786;7.840;2024-03-02T11:56:09;2.05;;;1.27;;
21806;SDS011;11065;50.786;7.840;2024-03-02T11:58:39;2.22;;;1.67;;
21806;SDS011;11065;50.786;7.840;2024-03-02T12:01:08;3.00;;;1.60;;
21806;SDS011;11065;50.786;7.840;2024-03-02T12:03:38;2.87;;;1.67;;
21806;SDS011;11065;50.786;7.840;2024-03-02T12:06:06;2.40;;;1.53;;
21806;SDS011;11065;50.786;7.840;2024-03-02T12:08:35;3.67;;;1.53;;
21806;SDS011;11065;50.786;7.840;2024-03-02T12:11:05;2.40;;;1.57;;
21806;SDS011;11065;50.786;7.840;2024-03-02T12:13:33;3.47;;;1.87;;
21806;SDS011;11065;50.786;7.840;2024-03-02T12:16:01;2.70;;;1.33;;
21806;SDS011;11065;50.786;7.840;2024-03-02T12:18:30;2.50;;;1.77;;
21806;SDS011;11065;50.786;7.840;2024-03-02T12:20:58;2.13;;;1.43;;
21806;SDS011;11065;50.786;7.840;2024-03-02T12:23:26;3.63;;;1.23;;
21806;SDS011;11065;50.786;7.840;2024-03-02T12:25:54;2.90;;;1.60;;
21806;SDS011;11065;50.786;7.840;2024-03-02T12:28:24;2.83;;;1.43;;
21806;SDS011;11065;50.786;7.840;2024-03-02T12:30:52;2.27;;;1.40;;
21806;SDS011;11065;50.786;7.840;2024-03-02T12:33:21;1.80;;;1.20;;
21806;SDS011;11065;50.786;7.840;2024-03-02T12:35:49;2.03;;;1.40;;
21806;SDS011;11065;50.786;7.840;2024-03-02T12:38:17;1.87;;;1.10;;
21806;SDS011;11065;50.786;7.840;2024-03-02T12:40:47;2.80;;;1.37;;
21806;SDS011;11065;50.786;7.840;2024-03-02T12:43:15;2.77;;;1.33;;
21806;SDS011;11065;50.786;7.840;2024-03-02T12:45:45;2.00;;;1.10;;
21806;SDS011;11065;50.786;7.840;2024-03-02T12:48:13;2.20;;;1.20;;
21806;SDS011;11065;50.786;7.840;2024-03-02T12:50:41;1.50;;;1.00;;
21806;SDS011;11065;50.786;7.840;2024-03-02T12:53:13;2.07;;;1.40;;
21806;SDS011;11065;50.786;7.840;2024-03-02T12:55:42;2.33;;;1.30;;
21806;SDS011;11065;50.786;7.840;2024-03-02T12:58:16;2.20;;;1.20;;
21806;SDS011;11065;50.786;7.840;2024-03-02T13:00:46;1.85;;;0.90;;
21806;SDS011;11065;50.786;7.840;2024-03-02T13:03:14;1.55;;;0.80;;
21806;SDS011;11065;50.786;7.840;2024-03-02T13:05:48;1.67;;;1.08;;
21806;SDS011;11065;50.786;7.840;2024-03-02T13:08:16;2.20;;;1.17;;
21806;SDS011;11065;50.786;7.840;2024-03-02T13:10:44;1.42;;;1.02;;
21806;SDS011;11065;50.786;7.840;2024-03-02T13:13:13;2.10;;;1.20;;
21806;SDS011;11065;50.786;7.840;2024-03-02T13:15:41;1.55;;;1.08;;
21806;SDS011;11065;50.786;7.840;2024-03-02T13:18:11;2.20;;;1.27;;
21806;SDS011;11065;50.786;7.840;2024-03-02T13:20:40;2.05;;;1.48;;
21806;SDS011;11065;50.786;7.840;2024-03-02T13:23:07;1.92;;;1.10;;
21806;SDS011;11065;50.786;7.840;2024-03-02T13:25:36;2.13;;;1.20;;
21806;SDS011;11065;50.786;7.840;2024-03-02T13:28:04;2.08;;;1.10;;
21806;SDS011;11065;50.786;7.840;2024-03-02T13:30:33;2.25;;;0.95;;
21806;SDS011;11065;50.786;7.840;2024-03-02T13:33:01;1.35;;;0.80;;
21806;SDS011;11065;50.786;7.840;2024-03-02T13:35:30;1.30;;;0.70;;
21806;SDS011;11065;50.786;7.840;2024-03-02T13:37:58;1.50;;;0.82;;
21806;SDS011;11065;50.786;7.840;2024-03-02T13:40:26;1.38;;;0.82;;
21806;SDS011;11065;50.786;7.840;2024-03-02T13:42:55;1.27;;;0.65;;
21806;SDS011;11065;50.786;7.840;2024-03-02T13:45:23;1.50;;;0.90;;
21806;SDS011;11065;50.786;7.840;2024-03-02T13:47:51;1.17;;;0.70;;
21806;SDS011;11065;50.786;7.840;2024-03-02T13:50:19;1.13;;;0.73;;
21806;SDS011;11065;50.786;7.840;2024-03-02T13:52:49;1.00;;;0.70;;
21806;SDS011;11065;50.786;7.840;2024-03-02T13:55:17;2.10;;;0.60;;
21806;SDS011;11065;50.786;7.840;2024-03-02T13:57:45;2.67;;;1.03;;
21806;SDS011;11065;50.786;7.840;2024-03-02T14:00:15;1.02;;;0.68;;
21806;SDS011;11065;50.786;7.840;2024-03-02T14:02:43;2.50;;;0.80;;
21806;SDS011;11065;50.786;7.840;2024-03-02T14:05:13;1.77;;;0.83;;
21806;SDS011;11065;50.786;7.840;2024-03-02T14:07:41;0.90;;;0.60;;
21806;SDS011;11065;50.786;7.840;2024-03-02T14:10:10;1.10;;;0.50;;
21806;SDS011;11065;50.786;7.840;2024-03-02T14:12:40;1.67;;;0.70;;
21806;SDS011;11065;50.786;7.840;2024-03-02T14:15:09;1.10;;;0.73;;
21806;SDS011;11065;50.786;7.840;2024-03-02T14:17:37;1.57;;;0.80;;
21806;SDS011;11065;50.786;7.840;2024-03-02T14:20:05;1.57;;;0.70;;
21806;SDS011;11065;50.786;7.840;2024-03-02T14:22:36;2.23;;;0.90;;
21806;SDS011;11065;50.786;7.840;2024-03-02T14:25:04;1.53;;;0.70;;
21806;SDS011;11065;50.786;7.840;2024-03-02T14:27:34;1.63;;;0.70;;
21806;SDS011;11065;50.786;7.840;2024-03-02T14:30:22;1.07;;;0.70;;
21806;SDS011;11065;50.786;7.840;2024-03-02T14:32:50;1.57;;;0.80;;
21806;SDS011;11065;50.786;7.840;2024-03-02T14:35:18;1.20;;;0.67;;
21806;SDS011;11065;50.786;7.840;2024-03-02T14:37:48;1.50;;;0.70;;
21806;SDS011;11065;50.786;7.840;2024-03-02T14:40:17;0.80;;;0.50;;
21806;SDS011;11065;50.786;7.840;2024-03-02T14:42:46;1.30;;;0.80;;
21806;SDS011;11065;50.786;7.840;2024-03-02T14:45:14;1.03;;;0.70;;
21806;SDS011;11065;50.786;7.840;2024-03-02T14:47:42;2.37;;;0.70;;
21806;SDS011;11065;50.786;7.840;2024-03-02T14:50:11;1.27;;;0.70;;
21806;SDS011;11065;50.786;7.840;2024-03-02T14:52:39;1.07;;;0.57;;
21806;SDS011;11065;50.786;7.840;2024-03-02T14:55:11;2.60;;;0.63;;
21806;SDS011;11065;50.786;7.840;2024-03-02T14:57:39;1.07;;;0.50;;
21806;SDS011;11065;50.786;7.840;2024-03-02T15:00:09;1.20;;;0.67;;
21806;SDS011;11065;50.786;7.840;2024-03-02T15:02:38;1.70;;;0.53;;